Time;durP1;ratioP1;P1;durP2;ratioP2;P2;SDS_P1;SDS_P2;PMS_P1;PMS_P2;Temp;Humidity;BMP_temperature;BMP_pressure;BME280_temperature;BME280_humidity;BME280_pressure;Samples;Min_cycle;Max_cycle;Signal;HPM_P1;HPM_P2
2022/05/30 00:00:06;;;;;;;8.73;4.47;;;;;;;10.31;75.42;99255.56;5005664;28;20034;-66
2022/05/30 00:02:32;;;;;;;10.18;4.63;;;;;;;10.31;74.57;99259.94;5004821;28;20034;-66
2022/05/30 00:04:57;;;;;;;6.75;4.10;;;;;;;10.34;75.29;99257.16;5005392;28;20045;-66
2022/05/30 00:07:23;;;;;;;7.80;4.45;;;;;;;10.38;75.43;99253.41;5004228;28;20037;-65
2022/05/30 00:09:48;;;;;;;15.20;5.05;;;;;;;10.38;74.96;99255.19;5005050;28;20693;-65
2022/05/30 00:12:13;;;;;;;6.78;3.50;;;;;;;10.40;74.85;99259.44;5004676;28;20049;-65
2022/05/30 00:14:39;;;;;;;8.75;4.47;;;;;;;10.40;74.82;99254.16;5005361;28;20045;-65
2022/05/30 00:17:04;;;;;;;5.35;3.28;;;;;;;10.40;74.46;99258.59;5004917;28;20041;-65
2022/05/30 00:19:30;;;;;;;7.78;4.63;;;;;;;10.39;74.42;99252.47;5004307;28;20034;-63
2022/05/30 00:21:56;;;;;;;9.48;5.10;;;;;;;10.39;74.54;99256.91;5004728;28;20485;-65
2022/05/30 00:24:22;;;;;;;8.30;4.05;;;;;;;10.35;74.92;99252.75;5004385;28;20052;-66
2022/05/30 00:26:47;;;;;;;10.55;4.30;;;;;;;10.32;74.50;99251.13;5003401;28;20577;-65
2022/05/30 00:29:13;;;;;;;10.68;4.72;;;;;;;10.24;74.71;99246.25;5002552;28;20034;-65
2022/05/30 00:31:38;;;;;;;11.15;4.50;;;;;;;10.22;75.43;99248.13;5004290;28;20080;-64
2022/05/30 00:34:04;;;;;;;5.68;4.10;;;;;;;10.21;75.20;99248.19;5004017;28;20046;-65
2022/05/30 00:36:29;;;;;;;7.85;3.80;;;;;;;10.21;75.71;99248.19;5003138;28;20042;-67
2022/05/30 00:38:55;;;;;;;6.70;3.22;;;;;;;10.16;75.53;99250.25;5003937;28;20522;-63
2022/05/30 00:41:21;;;;;;;10.32;4.35;;;;;;;10.10;75.12;99252.28;5003145;28;20033;-65
2022/05/30 00:43:47;;;;;;;7.00;4.28;;;;;;;10.03;75.50;99248.31;5003905;28;20065;-65
2022/05/30 00:46:15;;;;;;;7.93;4.80;;;;;;;9.93;75.76;99239.22;5003241;28;20042;-65
2022/05/30 00:48:50;;;;;;;7.88;4.78;;;;;;;9.81;75.91;99235.47;5003639;28;20033;-64
2022/05/30 00:51:31;;;;;;;13.25;4.53;;;;;;;9.74;75.99;99243.78;5003265;28;20520;-63
2022/05/30 00:53:58;;;;;;;8.05;3.97;;;;;;;9.71;76.35;99239.53;5003330;28;20054;-65
2022/05/30 00:56:27;;;;;;;6.43;5.13;;;;;;;9.71;76.08;99233.44;5001295;28;20837;-65
2022/05/30 00:58:53;;;;;;;7.75;4.63;;;;;;;9.73;76.29;99240.31;5009434;28;20099;-64
2022/05/30 01:01:20;;;;;;;14.05;5.70;;;;;;;9.65;76.17;99235.47;5004438;28;20041;-65
2022/05/30 01:06:37;;;;;;;9.45;4.90;;;;;;;9.61;77.36;99238.34;5009450;28;20044;-65
2022/05/30 01:09:08;;;;;;;8.77;5.07;;;;;;;9.62;76.62;99238.28;5010405;28;20087;-66
2022/05/30 01:11:53;;;;;;;6.75;4.97;;;;;;;9.65;77.21;99232.84;5010218;28;20038;-67
2022/05/30 01:14:19;;;;;;;9.30;4.85;;;;;;;9.65;77.17;99238.09;5009868;28;20038;-65
2022/05/30 01:16:45;;;;;;;8.38;4.82;;;;;;;9.64;76.75;99236.38;5008714;28;20025;-65
2022/05/30 01:19:58;;;;;;;8.25;4.47;;;;;;;9.62;76.77;99233.00;5008497;28;20041;-65
2022/05/30 01:22:38;;;;;;;8.98;5.15;;;;;;;9.52;77.68;99229.16;5007624;28;20096;-65
2022/05/30 01:25:12;;;;;;;10.77;5.80;;;;;;;9.50;77.93;99231.03;5007986;28;20037;-67
2022/05/30 01:28:05;;;;;;;7.03;3.95;;;;;;;9.51;78.10;99227.47;5007853;28;20108;-65
2022/05/30 01:30:34;;;;;;;6.55;4.50;;;;;;;9.52;77.94;99229.16;5009773;28;20041;-66
2022/05/30 01:32:59;;;;;;;7.65;5.25;;;;;;;9.51;77.20;99227.47;5009710;28;20038;-66
2022/05/30 01:35:27;;;;;;;7.18;4.90;;;;;;;9.50;76.93;99225.78;5009387;28;20057;-66
2022/05/30 01:37:55;;;;;;;9.73;4.57;;;;;;;9.48;77.49;99226.78;5008882;28;20038;-65
2022/05/30 01:40:20;;;;;;;6.07;3.60;;;;;;;9.42;77.83;99227.94;5009475;28;20502;-65
2022/05/30 01:42:45;;;;;;;6.80;4.60;;;;;;;9.38;77.98;99221.19;5009230;28;20053;-66
2022/05/30 01:45:11;;;;;;;8.52;4.65;;;;;;;9.38;77.98;99216.75;5009742;28;20048;-65
2022/05/30 01:47:36;;;;;;;13.07;5.65;;;;;;;9.36;77.50;99223.03;5009647;28;20029;-65
2022/05/30 01:50:04;;;;;;;8.00;4.10;;;;;;;9.34;77.90;99222.25;5009709;28;20049;-65
2022/05/30 01:52:30;;;;;;;8.73;5.05;;;;;;;9.34;77.85;99224.88;5009549;28;20520;-67
2022/05/30 01:54:55;;;;;;;8.50;4.95;;;;;;;9.32;77.51;99224.97;5009463;28;20041;-66
2022/05/30 01:57:21;;;;;;;11.10;5.82;;;;;;;9.33;77.84;99223.16;5008827;28;20050;-65
2022/05/30 01:59:46;;;;;;;8.93;4.25;;;;;;;9.30;77.48;99218.09;5009641;28;20064;-65
2022/05/30 02:02:11;;;;;;;14.00;6.03;;;;;;;9.23;77.58;99207.06;5009045;28;20065;-65
2022/05/30 02:04:37;;;;;;;17.60;6.47;;;;;;;9.14;77.53;99202.28;5009888;28;20029;-64
2022/05/30 02:07:02;;;;;;;7.70;5.38;;;;;;;9.05;78.41;99203.59;5008989;28;20478;-65
2022/05/30 02:09:28;;;;;;;5.75;4.47;;;;;;;8.98;78.36;99202.22;5006756;28;20502;-66
2022/05/30 02:11:53;;;;;;;9.05;5.03;;;;;;;8.92;77.61;99202.56;5006296;28;20042;-65
2022/05/30 02:14:19;;;;;;;13.93;6.90;;;;;;;8.87;77.84;99207.19;5006251;28;20049;-67
2022/05/30 02:17:04;;;;;;;6.53;4.63;;;;;;;8.81;77.83;99203.97;5005674;28;20034;-65
2022/05/30 02:19:32;;;;;;;10.18;5.75;;;;;;;8.74;77.55;99205.19;5006376;28;20604;-63
2022/05/30 02:21:57;;;;;;;7.68;4.75;;;;;;;8.60;78.82;99207.66;5006097;28;20034;-63
2022/05/30 02:24:24;;;;;;;11.85;6.57;;;;;;;8.50;78.42;99216.94;5005886;28;20045;-65
2022/05/30 02:26:49;;;;;;;9.95;6.28;;;;;;;8.37;79.59;99214.88;5005459;28;20058;-64
2022/05/30 02:29:14;;;;;;;16.40;5.85;;;;;;;8.30;79.62;99212.66;5006098;28;20144;-65
2022/05/30 02:31:41;;;;;;;10.27;5.78;;;;;;;8.25;79.43;99212.03;5006284;28;20506;-62
2022/05/30 02:36:51;;;;;;;10.90;6.28;;;;;;;8.15;80.22;99203.75;5005296;28;20394;-65
2022/05/30 02:39:19;;;;;;;6.47;4.13;;;;;;;8.11;80.02;99199.56;5005856;28;20034;-66
2022/05/30 02:41:45;;;;;;;9.90;4.72;;;;;;;8.11;79.25;99196.94;5005865;28;20041;-65
2022/05/30 02:44:11;;;;;;;9.88;5.82;;;;;;;8.09;79.20;99206.66;5005756;28;20045;-65
2022/05/30 02:46:36;;;;;;;8.60;5.45;;;;;;;8.05;79.14;99199.84;5005587;28;20482;-66
2022/05/30 02:49:02;;;;;;;6.38;5.25;;;;;;;7.97;78.86;99202.84;5005984;28;20041;-65
2022/05/30 02:51:28;;;;;;;7.55;4.30;;;;;;;7.90;79.34;99207.56;5006019;28;20025;-64
2022/05/30 02:53:53;;;;;;;6.03;4.55;;;;;;;7.85;79.12;99206.91;5005465;28;20065;-66
2022/05/30 02:56:19;;;;;;;9.98;6.25;;;;;;;7.76;79.22;99209.97;5004910;28;20042;-65
2022/05/30 02:58:45;;;;;;;5.85;4.55;;;;;;;7.64;79.67;99203.50;5005004;28;20034;-66
2022/05/30 03:01:11;;;;;;;8.25;4.85;;;;;;;7.56;79.87;99204.81;5005611;28;20733;-65
2022/05/30 03:03:37;;;;;;;6.93;4.95;;;;;;;7.56;79.89;99205.66;5005631;28;20129;-65
2022/05/30 03:06:03;;;;;;;12.90;5.93;;;;;;;7.55;79.50;99203.09;5004761;28;20172;-64
2022/05/30 03:08:29;;;;;;;11.55;5.85;;;;;;;7.46;79.66;99209.63;5003644;28;20037;-66
2022/05/30 03:10:54;;;;;;;10.10;5.25;;;;;;;7.40;79.66;99208.13;5005383;28;20453;-66
2022/05/30 03:13:20;;;;;;;9.38;5.72;;;;;;;7.37;79.58;99213.50;5005033;28;20116;-63
2022/05/30 03:15:45;;;;;;;6.50;4.70;;;;;;;7.31;79.42;99208.56;5005272;28;20042;-65
2022/05/30 03:18:10;;;;;;;5.53;4.47;;;;;;;7.28;79.20;99209.50;5004500;28;20069;-63
2022/05/30 03:20:36;;;;;;;7.88;4.88;;;;;;;7.28;79.58;99211.28;5005496;28;20870;-65
2022/05/30 03:23:01;;;;;;;11.32;5.40;;;;;;;7.26;79.23;99213.13;5005066;28;20490;-66
2022/05/30 03:25:27;;;;;;;7.45;5.95;;;;;;;7.21;79.64;99215.97;5005171;28;20062;-64
2022/05/30 03:27:53;;;;;;;10.45;5.40;;;;;;;7.21;79.33;99217.72;5004569;28;20084;-66
2022/05/30 03:30:20;;;;;;;8.43;6.00;;;;;;;7.10;79.97;99211.19;5005315;28;20045;-66
2022/05/30 03:32:45;;;;;;;7.07;5.53;;;;;;;7.10;80.04;99213.81;5004955;28;20038;-66
2022/05/30 03:35:12;;;;;;;7.70;4.38;;;;;;;7.14;79.63;99213.66;5005072;28;20390;-66
2022/05/30 03:37:39;;;;;;;7.00;5.30;;;;;;;7.15;79.62;99212.78;5004538;28;20037;-66
2022/05/30 03:40:06;;;;;;;13.43;6.45;;;;;;;7.08;79.77;99218.25;5005062;28;20149;-65
2022/05/30 03:42:32;;;;;;;12.50;4.70;;;;;;;7.08;79.50;99223.50;5011522;28;20048;-66
2022/05/30 03:44:57;;;;;;;6.10;4.57;;;;;;;7.08;79.01;99228.75;5024388;28;20040;-65
2022/05/30 03:47:23;;;;;;;10.48;4.55;;;;;;;7.08;79.71;99225.28;5023958;28;20450;-64
2022/05/30 03:49:48;;;;;;;6.63;5.13;;;;;;;7.07;78.96;99228.84;5024818;28;20128;-65
2022/05/30 03:52:14;;;;;;;9.40;6.03;;;;;;;7.06;78.52;99228.00;5024658;28;20047;-66
2022/05/30 03:54:42;;;;;;;12.23;6.47;;;;;;;6.95;78.93;99230.22;5024935;28;20041;-67
2022/05/30 03:57:07;;;;;;;7.03;5.28;;;;;;;6.91;79.70;99231.25;5044664;28;20039;-66
2022/05/30 03:59:32;;;;;;;7.78;5.68;;;;;;;6.88;79.94;99227.00;5025375;28;20037;-66
2022/05/30 04:01:58;;;;;;;9.30;4.90;;;;;;;6.86;80.21;99233.22;5024335;28;20037;-64
2022/05/30 04:04:23;;;;;;;8.90;4.50;;;;;;;6.92;80.07;99234.75;5024414;28;20541;-64
2022/05/30 04:06:49;;;;;;;15.02;5.53;;;;;;;6.93;79.46;99229.44;5023390;28;20030;-66
2022/05/30 04:09:14;;;;;;;9.88;5.57;;;;;;;6.96;79.30;99233.69;5024191;28;20474;-64
2022/05/30 04:11:39;;;;;;;9.13;6.38;;;;;;;6.93;78.66;99233.81;5024527;28;20828;-66
2022/05/30 04:14:05;;;;;;;12.10;6.30;;;;;;;6.81;79.41;99233.41;5023958;28;20052;-65
2022/05/30 04:16:30;;;;;;;10.52;5.82;;;;;;;6.73;79.61;99232.06;5023859;28;20037;-66
2022/05/30 04:18:55;;;;;;;9.73;5.25;;;;;;;6.68;79.94;99226.16;5024166;28;20033;-66
2022/05/30 04:21:22;;;;;;;9.32;4.85;;;;;;;6.71;79.78;99226.03;5023797;28;20038;-64
2022/05/30 04:23:47;;;;;;;16.17;5.78;;;;;;;6.72;79.34;99235.56;5023926;28;20121;-64
2022/05/30 04:26:15;;;;;;;8.05;4.63;;;;;;;6.73;79.91;99234.69;5023375;28;20120;-66
2022/05/30 04:28:41;;;;;;;8.68;5.03;;;;;;;6.74;79.15;99241.59;5022835;28;20838;-65
2022/05/30 04:31:08;;;;;;;6.25;4.18;;;;;;;6.74;79.38;99242.44;5023760;28;20033;-65
2022/05/30 04:33:34;;;;;;;6.47;4.70;;;;;;;6.76;79.45;99245.03;5007396;28;20059;-66
2022/05/30 04:36:02;;;;;;;11.45;5.55;;;;;;;6.78;79.17;99251.06;5003414;28;20038;-65
2022/05/30 04:38:28;;;;;;;6.50;4.18;;;;;;;6.82;79.53;99250.00;5004210;28;20049;-64
2022/05/30 04:40:54;;;;;;;9.07;4.38;;;;;;;6.84;79.50;99251.66;5003938;28;20038;-66
2022/05/30 04:43:20;;;;;;;6.95;4.68;;;;;;;6.91;79.28;99254.00;5003725;28;20052;-64
2022/05/30 04:45:45;;;;;;;11.60;4.13;;;;;;;6.96;79.41;99252.03;5003707;28;20038;-64
2022/05/30 04:48:10;;;;;;;10.00;4.80;;;;;;;7.02;79.14;99257.88;5003508;28;20030;-65
2022/05/30 04:50:36;;;;;;;7.40;4.75;;;;;;;7.08;79.52;99254.97;5003785;28;20131;-66
2022/05/30 04:53:01;;;;;;;11.82;6.00;;;;;;;7.13;79.13;99256.53;5003772;28;20038;-66
2022/05/30 04:55:26;;;;;;;7.90;4.88;;;;;;;7.19;79.19;99253.66;5003727;28;20050;-66
2022/05/30 04:57:52;;;;;;;9.68;5.63;;;;;;;7.27;79.27;99255.00;5003216;28;20037;-66
2022/05/30 05:00:24;;;;;;;6.50;4.53;;;;;;;7.35;79.58;99259.91;5003459;28;20061;-66
2022/05/30 05:02:52;;;;;;;12.45;5.10;;;;;;;7.42;79.59;99256.09;5003196;28;20395;-66
2022/05/30 05:05:17;;;;;;;9.60;5.60;;;;;;;7.52;79.32;99257.38;5003848;28;20133;-66
2022/05/30 05:07:48;;;;;;;8.13;5.63;;;;;;;7.61;79.35;99264.00;5002727;28;20042;-65
2022/05/30 05:10:40;;;;;;;10.50;6.35;;;;;;;7.72;79.23;99255.63;5003119;28;20100;-65
2022/05/30 05:13:05;;;;;;;11.15;6.20;;;;;;;7.82;79.64;99262.16;5003878;28;20038;-66
2022/05/30 05:15:31;;;;;;;10.52;5.72;;;;;;;7.87;79.71;99260.16;5004142;28;20054;-64
2022/05/30 05:17:56;;;;;;;12.55;6.95;;;;;;;8.01;79.21;99256.91;5003841;28;20038;-55
2022/05/30 05:20:23;;;;;;;11.00;5.78;;;;;;;8.25;80.17;99262.75;5004400;28;20072;-54
2022/05/30 05:22:49;;;;;;;9.30;6.72;;;;;;;8.32;78.15;99265.94;5003929;28;20049;-53
2022/05/30 05:25:15;;;;;;;11.25;7.13;;;;;;;8.43;78.75;99274.19;5004416;28;20484;-55
2022/05/30 05:27:40;;;;;;;8.77;6.43;;;;;;;8.48;79.50;99273.97;5003140;28;20038;-56
2022/05/30 05:30:07;;;;;;;11.20;7.03;;;;;;;8.78;78.38;99276.84;5004179;28;20533;-58
2022/05/30 05:32:32;;;;;;;9.93;5.25;;;;;;;8.93;77.71;99280.47;5005783;28;20448;-55
2022/05/30 05:34:57;;;;;;;12.55;7.70;;;;;;;9.09;78.00;99283.19;5006975;28;20038;-54
2022/05/30 05:37:23;;;;;;;22.63;8.00;;;;;;;9.10;76.80;99279.63;5006003;28;20390;-51
2022/05/30 05:39:49;;;;;;;12.95;7.90;;;;;;;9.03;78.29;99279.94;5006149;28;20509;-54
2022/05/30 05:42:14;;;;;;;17.85;7.75;;;;;;;9.19;78.41;99277.38;5005376;28;20096;-57
2022/05/30 05:44:40;;;;;;;11.00;6.03;;;;;;;9.41;77.65;99278.88;5011670;28;20034;-53
2022/05/30 05:47:06;;;;;;;16.20;7.20;;;;;;;9.53;76.40;99285.28;5008798;28;20038;-56
2022/05/30 05:49:31;;;;;;;14.82;6.40;;;;;;;9.63;76.48;99286.50;5012980;28;20052;-57
2022/05/30 05:51:57;;;;;;;13.88;7.80;;;;;;;9.67;76.28;99285.38;5015937;28;20723;-58
2022/05/30 05:54:23;;;;;;;15.30;8.02;;;;;;;9.78;76.12;99285.66;5012050;28;20046;-67
2022/05/30 05:56:49;;;;;;;8.60;6.43;;;;;;;9.80;75.95;99285.59;5008692;28;20569;-65
2022/05/30 05:59:16;;;;;;;13.43;8.07;;;;;;;9.81;75.91;99289.91;5008299;28;20062;-65
2022/05/30 06:01:41;;;;;;;16.10;8.40;;;;;;;9.79;75.87;99294.41;5008458;28;20136;-63
2022/05/30 06:04:09;;;;;;;13.07;8.52;;;;;;;9.75;76.79;99295.53;5010248;28;20057;-65
2022/05/30 06:06:35;;;;;;;19.33;7.85;;;;;;;9.84;76.83;99292.38;5008615;28;20129;-64
2022/05/30 06:09:03;;;;;;;15.73;8.15;;;;;;;9.94;76.07;99293.56;5008122;28;25436;-65
2022/05/30 06:11:30;;;;;;;18.17;9.02;;;;;;;9.95;74.96;99290.00;5007762;28;20490;-63
2022/05/30 06:13:55;;;;;;;14.70;8.52;;;;;;;9.97;75.45;99285.53;5008362;28;20080;-65
2022/05/30 06:16:26;;;;;;;28.48;11.00;;;;;;;9.95;74.84;99286.53;5007947;28;20046;-63
2022/05/30 06:18:54;;;;;;;16.23;9.80;;;;;;;9.97;75.32;99290.78;5009949;28;20581;-64
2022/05/30 06:21:21;;;;;;;13.30;7.38;;;;;;;10.02;74.07;99293.16;5007225;28;20068;-64
2022/05/30 06:23:47;;;;;;;16.67;7.28;;;;;;;10.10;73.02;99290.97;5008390;28;20049;-66
2022/05/30 06:26:14;;;;;;;12.05;7.05;;;;;;;10.07;71.88;99299.03;5008330;28;20070;-64
2022/05/30 06:28:40;;;;;;;12.25;5.88;;;;;;;10.09;71.21;99303.28;5008292;28;20058;-64
2022/05/30 06:31:14;;;;;;;12.25;6.28;;;;;;;10.10;70.65;99299.69;5005166;28;20041;-64
2022/05/30 06:33:40;;;;;;;12.02;7.30;;;;;;;10.16;72.00;99295.03;5006940;28;20065;-64
2022/05/30 06:36:07;;;;;;;18.10;7.85;;;;;;;10.19;72.57;99302.75;5006121;28;20422;-64
2022/05/30 06:38:33;;;;;;;12.85;8.05;;;;;;;10.20;72.91;99307.94;5007070;28;20525;-64
2022/05/30 06:41:12;;;;;;;15.45;8.75;;;;;;;10.19;72.19;99303.63;5006781;28;20053;-64
2022/05/30 06:43:38;;;;;;;15.20;8.15;;;;;;;10.17;72.61;99304.66;5006819;28;20044;-64
2022/05/30 06:46:05;;;;;;;16.05;8.63;;;;;;;10.19;72.43;99308.03;5005787;28;20133;-65
2022/05/30 06:48:31;;;;;;;16.77;9.43;;;;;;;10.17;72.32;99308.13;5007426;28;20128;-65
2022/05/30 06:50:57;;;;;;;15.07;8.50;;;;;;;10.18;73.31;99315.09;5006677;28;20120;-65
2022/05/30 06:53:22;;;;;;;17.13;7.40;;;;;;;10.10;70.47;99315.50;5006018;28;20045;-64
2022/05/30 06:55:50;;;;;;;15.98;6.35;;;;;;;10.03;71.00;99303.59;5006156;28;20403;-68
2022/05/30 06:58:19;;;;;;;15.73;7.40;;;;;;;10.00;72.32;99311.69;5006363;28;20107;-65
2022/05/30 07:00:46;;;;;;;20.13;9.52;;;;;;;10.00;72.19;99316.94;5006137;28;20350;-63
2022/05/30 07:03:12;;;;;;;16.35;8.73;;;;;;;10.01;71.46;99321.25;5006035;28;20040;-63
2022/05/30 07:05:39;;;;;;;17.92;7.40;;;;;;;10.01;71.80;99323.06;5006362;28;20029;-64
2022/05/30 07:08:05;;;;;;;12.98;9.70;;;;;;;9.97;72.02;99325.03;5005287;28;20123;-66
2022/05/30 07:10:32;;;;;;;11.27;6.43;;;;;;;10.01;72.07;99318.63;5006068;28;20066;-65
2022/05/30 07:12:58;;;;;;;15.50;8.93;;;;;;;10.19;71.53;99324.69;5005496;28;20034;-66
2022/05/30 07:15:25;;;;;;;15.07;7.70;;;;;;;10.26;70.75;99315.53;5005557;28;20399;-66
2022/05/30 07:17:51;;;;;;;15.88;8.68;;;;;;;10.32;71.24;99324.91;5004732;28;20129;-66
2022/05/30 07:20:17;;;;;;;19.58;9.63;;;;;;;10.43;71.04;99340.09;5005622;28;20038;-64
2022/05/30 07:22:42;;;;;;;18.17;9.52;;;;;;;10.40;71.49;99335.84;5004990;28;20044;-65
2022/05/30 07:25:08;;;;;;;20.60;8.75;;;;;;;10.48;71.01;99333.66;5006076;28;20077;-63
2022/05/30 07:27:33;;;;;;;18.35;8.60;;;;;;;10.56;70.87;99337.63;5004936;28;20034;-66
2022/05/30 07:29:59;;;;;;;15.95;7.35;;;;;;;10.71;69.87;99336.78;5005710;28;20120;-65
2022/05/30 07:32:24;;;;;;;20.48;10.68;;;;;;;10.72;69.09;99334.03;5005905;28;20041;-67
2022/05/30 07:34:50;;;;;;;16.45;8.82;;;;;;;10.70;69.32;99333.25;5006926;28;20046;-66
2022/05/30 07:37:15;;;;;;;12.18;8.52;;;;;;;10.68;70.05;99329.91;5006824;28;20490;-65
2022/05/30 07:39:41;;;;;;;20.08;9.77;;;;;;;10.69;70.15;99328.94;5007359;28;20041;-66
2022/05/30 07:42:07;;;;;;;19.23;7.88;;;;;;;10.84;70.26;99335.13;5005466;28;20038;-66
2022/05/30 07:44:32;;;;;;;19.20;10.13;;;;;;;10.91;69.65;99327.72;5004728;28;20068;-66
2022/05/30 07:47:01;;;;;;;17.42;8.00;;;;;;;10.94;69.48;99322.25;5004507;28;20033;-65
2022/05/30 07:49:26;;;;;;;16.92;8.93;;;;;;;11.02;68.77;99324.44;5005292;28;20445;-64
2022/05/30 07:51:52;;;;;;;17.52;7.85;;;;;;;11.07;68.85;99328.50;5004862;28;20057;-65
2022/05/30 07:54:17;;;;;;;19.95;8.07;;;;;;;11.09;68.29;99333.69;5004734;28;20129;-64
2022/05/30 07:56:43;;;;;;;13.07;7.60;;;;;;;11.05;67.40;99330.41;5003617;28;20029;-66
2022/05/30 07:59:09;;;;;;;13.23;7.38;;;;;;;11.11;66.35;99327.38;5004042;28;20106;-64
2022/05/30 08:01:34;;;;;;;9.07;6.45;;;;;;;11.17;66.94;99332.31;5002959;28;20122;-66
2022/05/30 08:04:00;;;;;;;15.85;7.38;;;;;;;11.23;65.64;99331.09;5003080;28;20052;-64
2022/05/30 08:06:28;;;;;;;15.15;7.20;;;;;;;11.19;64.84;99332.22;4999509;28;20045;-65
2022/05/30 08:08:54;;;;;;;16.58;7.10;;;;;;;11.30;64.57;99337.72;5003681;28;20441;-65
2022/05/30 08:11:20;;;;;;;17.50;5.85;;;;;;;11.42;63.77;99332.63;5004023;28;20108;-66
2022/05/30 08:13:47;;;;;;;10.77;6.03;;;;;;;11.51;64.02;99325.00;5004260;28;20034;-64
2022/05/30 08:16:23;;;;;;;10.93;5.90;;;;;;;11.63;64.19;99327.84;5003698;28;20033;-64
2022/05/30 08:18:48;;;;;;;11.82;6.43;;;;;;;11.77;64.30;99327.88;5006090;28;20038;-65
2022/05/30 08:21:15;;;;;;;20.10;7.60;;;;;;;12.07;63.68;99334.88;5008156;28;20095;-67
2022/05/30 08:23:41;;;;;;;13.60;7.18;;;;;;;12.06;63.29;99326.09;5004523;28;20061;-67
2022/05/30 08:26:07;;;;;;;21.15;10.40;;;;;;;11.94;63.75;99325.06;5003141;28;20057;-65
2022/05/30 08:28:33;;;;;;;21.10;10.05;;;;;;;11.91;63.17;99330.53;5002395;28;20049;-65
2022/05/30 08:30:59;;;;;;;14.93;8.07;;;;;;;11.82;63.94;99326.63;5004069;28;20129;-64
2022/05/30 08:33:25;;;;;;;15.55;9.02;;;;;;;11.84;63.30;99323.91;5003760;28;20124;-64
2022/05/30 08:36:03;;;;;;;16.73;7.15;;;;;;;11.94;63.61;99329.50;5003363;28;20125;-65
2022/05/30 08:38:33;;;;;;;14.48;7.32;;;;;;;12.05;63.61;99332.31;5003893;28;20038;-64
2022/05/30 08:43:58;;;;;;;17.48;9.10;;;;;;;12.12;63.43;99328.34;5003396;28;20072;-65
2022/05/30 08:46:36;;;;;;;23.20;10.07;;;;;;;12.14;63.94;99342.31;5002473;28;20140;-65
2022/05/30 08:49:02;;;;;;;15.73;9.32;;;;;;;12.31;62.26;99335.13;5003607;28;20061;-65
2022/05/30 08:51:52;;;;;;;17.88;8.13;;;;;;;12.47;61.71;99338.47;5003368;28;20105;-66
2022/05/30 08:54:20;;;;;;;19.00;8.10;;;;;;;12.52;60.74;99339.00;5003344;28;20116;-65
2022/05/30 08:56:51;;;;;;;23.23;8.32;;;;;;;12.61;60.68;99332.28;5002797;28;20116;-66
2022/05/30 08:59:46;;;;;;;17.50;8.48;;;;;;;12.46;59.80;99337.63;5003557;28;20414;-67
2022/05/30 09:02:34;;;;;;;12.82;6.88;;;;;;;12.60;58.55;99328.81;5003316;28;20037;-65
2022/05/30 09:05:23;;;;;;;16.20;6.85;;;;;;;13.11;56.82;99334.22;5003280;28;20034;-64
2022/05/30 09:07:53;;;;;;;13.27;6.35;;;;;;;13.34;55.40;99328.38;5002559;28;20041;-64
2022/05/30 09:10:32;;;;;;;8.85;4.55;;;;;;;13.58;53.45;99326.69;5003524;28;20133;-66
2022/05/30 09:13:18;;;;;;;11.30;4.78;;;;;;;13.60;52.90;99330.09;5003043;28;20061;-67
2022/05/30 09:15:43;;;;;;;;;;;;;;;13.62;53.14;99330.00;5003443;28;20045;-64
2022/05/30 09:18:20;;;;;;;17.93;5.67;;;;;;;13.45;54.21;99339.94;5003156;28;20253;-67
2022/05/30 09:20:46;;;;;;;11.88;5.72;;;;;;;13.46;54.61;99340.78;5007112;28;20038;-68
2022/05/30 09:23:13;;;;;;;13.43;6.00;;;;;;;13.55;53.41;99339.31;5007584;28;20386;-67
2022/05/30 09:25:56;;;;;;;9.45;4.75;;;;;;;13.54;53.72;99338.47;5006910;28;20068;-66
2022/05/30 09:28:31;;;;;;;16.80;5.75;;;;;;;13.62;52.92;99328.19;5006835;28;20512;-67
2022/05/30 09:31:20;;;;;;;7.93;4.15;;;;;;;13.80;51.89;99326.03;5006807;28;20045;-65
2022/05/30 09:33:53;;;;;;;16.65;6.00;;;;;;;13.88;51.86;99323.72;5005015;28;20124;-65
2022/05/30 09:36:19;;;;;;;17.02;5.97;;;;;;;13.93;51.97;99320.72;5006221;28;20100;-65
2022/05/30 09:39:03;;;;;;;9.73;4.25;;;;;;;13.84;50.19;99321.41;5007036;28;20052;-67
2022/05/30 09:41:28;;;;;;;7.93;4.93;;;;;;;14.04;49.80;99319.97;5006658;28;20073;-67
2022/05/30 09:44:01;;;;;;;10.43;5.00;;;;;;;14.73;48.75;99317.66;5006575;28;20117;-67
2022/05/30 09:46:40;;;;;;;16.92;5.60;;;;;;;14.57;48.82;99317.94;5006188;28;20226;-69
2022/05/30 09:49:08;;;;;;;6.65;4.20;;;;;;;14.50;48.93;99324.63;5006126;28;20060;-67
2022/05/30 09:51:46;;;;;;;15.57;8.32;;;;;;;14.43;49.02;99318.09;5002981;28;20525;-66
2022/05/30 09:54:24;;;;;;;14.77;5.82;;;;;;;14.49;48.09;99312.31;4986784;28;20478;-67
2022/05/30 09:57:06;;;;;;;10.15;5.32;;;;;;;14.44;49.56;99317.13;4986012;28;20038;-65
2022/05/30 09:59:42;;;;;;;13.23;4.70;;;;;;;14.28;50.53;99309.44;4986623;28;20043;-66
2022/05/30 10:02:22;;;;;;;9.40;4.00;;;;;;;14.23;51.07;99316.88;4988562;28;20113;-65
2022/05/30 10:05:16;;;;;;;8.82;5.32;;;;;;;13.92;51.38;99311.09;4988761;28;20034;-65
2022/05/30 10:08:17;;;;;;;12.55;5.00;;;;;;;13.87;52.08;99315.88;4984262;28;20129;-66
2022/05/30 10:10:51;;;;;;;8.05;3.85;;;;;;;13.73;51.50;99309.75;4985757;28;20052;-64
2022/05/30 10:13:34;;;;;;;7.43;5.30;;;;;;;13.75;51.52;99313.13;4986615;28;20042;-67
2022/05/30 10:16:00;;;;;;;7.15;3.78;;;;;;;13.85;52.09;99312.47;4986218;28;20513;-66
2022/05/30 10:18:29;;;;;;;15.32;4.63;;;;;;;14.03;51.82;99316.50;4986517;28;20038;-65
2022/05/30 10:21:30;;;;;;;12.95;3.90;;;;;;;13.99;50.16;99322.13;4984956;28;20042;-67
2022/05/30 10:30:57;;;;;;;11.73;4.20;;;;;;;14.15;49.73;99328.00;5003179;28;20048;-65
2022/05/30 10:33:54;;;;;;;15.65;5.95;;;;;;;14.27;48.84;99337.72;5006084;28;20073;-65
2022/05/30 10:36:38;;;;;;;11.20;4.32;;;;;;;14.87;47.62;99333.41;5004880;28;20058;-66
2022/05/30 10:39:13;;;;;;;7.85;5.07;;;;;;;14.93;46.48;99340.06;5006236;28;20109;-66
2022/05/30 10:41:48;;;;;;;10.80;4.57;;;;;;;14.97;46.29;99339.72;5005976;28;20042;-65
2022/05/30 10:44:23;;;;;;;7.50;3.95;;;;;;;14.92;46.05;99343.69;5006181;28;20060;-65
2022/05/30 10:46:53;;;;;;;12.15;4.72;;;;;;;15.63;44.11;99341.84;5005202;28;20116;-65
2022/05/30 10:49:22;;;;;;;10.60;5.82;;;;;;;15.70;43.55;99336.94;5005793;28;20042;-63
2022/05/30 10:51:57;;;;;;;8.35;4.22;;;;;;;15.39;43.79;99340.09;5005630;28;20030;-65
2022/05/30 10:54:40;;;;;;;8.80;5.07;;;;;;;15.15;44.75;99339.31;5005716;28;20038;-67
2022/05/30 10:57:10;;;;;;;9.55;4.03;;;;;;;15.12;44.97;99337.72;5004978;28;20121;-67
2022/05/30 10:59:45;;;;;;;7.80;4.00;;;;;;;15.23;43.55;99332.47;5005683;28;20045;-65
2022/05/30 11:02:22;;;;;;;7.05;3.60;;;;;;;15.30;42.79;99334.66;5006032;28;20164;-64
2022/05/30 11:04:58;;;;;;;9.55;3.67;;;;;;;15.28;42.87;99333.91;5005499;28;20214;-63
2022/05/30 11:07:23;;;;;;;6.20;3.67;;;;;;;15.24;42.15;99326.19;5005223;28;20042;-65
2022/05/30 11:09:58;;;;;;;8.40;3.80;;;;;;;15.24;41.82;99326.19;5005408;28;20033;-64
2022/05/30 11:12:30;;;;;;;6.63;3.72;;;;;;;15.23;42.36;99326.28;5005249;28;20632;-65
2022/05/30 11:15:15;;;;;;;9.35;3.65;;;;;;;15.38;42.66;99326.94;5005259;28;20664;-65
2022/05/30 11:17:55;;;;;;;11.02;4.30;;;;;;;15.63;41.98;99326.75;5004754;28;20045;-65
2022/05/30 11:20:26;;;;;;;8.30;3.55;;;;;;;15.97;41.25;99328.59;5004978;28;20517;-65
2022/05/30 11:22:54;;;;;;;6.38;3.88;;;;;;;16.08;41.17;99329.44;5005698;28;20108;-63
2022/05/30 11:25:50;;;;;;;11.13;4.20;;;;;;;16.13;40.63;99336.22;5004948;28;20034;-64
2022/05/30 11:28:46;;;;;;;9.25;3.78;;;;;;;16.09;40.72;99332.94;5004970;28;20076;-66
2022/05/30 11:31:32;;;;;;;6.18;3.72;;;;;;;16.04;41.09;99333.31;5004634;28;20045;-64
2022/05/30 11:34:19;;;;;;;15.13;3.95;;;;;;;15.93;41.79;99335.97;5003182;28;20474;-64
2022/05/30 11:37:00;;;;;;;5.28;3.15;;;;;;;15.86;40.69;99335.59;5004537;28;20041;-66
2022/05/30 11:39:41;;;;;;;4.68;2.90;;;;;;;15.63;39.83;99334.72;5005451;28;20049;-65
2022/05/30 11:42:19;;;;;;;6.15;2.70;;;;;;;15.66;39.72;99342.44;5004864;28;20438;-64
2022/05/30 11:45:23;;;;;;;5.05;2.65;;;;;;;15.62;39.79;99335.66;5004614;28;20046;-68
2022/05/30 11:48:13;;;;;;;5.05;2.88;;;;;;;15.53;40.09;99340.84;5003865;28;20394;-65
2022/05/30 11:51:06;;;;;;;7.50;3.10;;;;;;;15.42;40.51;99339.03;5005008;28;20060;-65
2022/05/30 11:53:50;;;;;;;8.48;3.03;;;;;;;15.50;40.97;99330.47;5004830;28;20042;-65
2022/05/30 11:56:50;;;;;;;5.53;2.88;;;;;;;15.56;40.59;99335.31;5003946;28;20050;-66
2022/05/30 11:59:31;;;;;;;5.53;2.85;;;;;;;15.65;40.52;99338.13;5004762;28;20041;-66
2022/05/30 12:01:59;;;;;;;7.65;3.28;;;;;;;15.73;40.64;99332.22;5004787;28;20042;-66